Terminal Aerodrome Forecast
Issued by NWS

Home | Current Version | Previous Version | Text Only | Print | Product List | Glossary Off
Versions: 1 2 3 4 5 6 7 8 9 10 11 12 13 14 15 16 17 18 19 20 21 22 23 24

000
FTUS43 KLOT 200528
TAFGYY
TAF
KGYY 200528Z 2006/2106 21015G21KT P6SM OVC250 WS020/23050KT
     FM200800 22011KT P6SM OVC250
     FM202100 23008KT P6SM BKN025
     FM210100 21006KT 5SM BR OVC012
     FM210400 21005KT 3SM BR OVC006=

USA.gov is the U.S. government's official web portal to all federal, state and local government web resources and services.